X  Fermer Données météorologiques d'aviation de Metar     YMML Melbourne International Airport
Température
59°F Température
54°F Point de rosée
82% Humidité



Vent
8 MPH
13 KM/H
4 M/S
7 KTS



230°
SO
Conditions actuelles

Partiellement nuageux Partiellement nuageux
Pression 1016.93 (hPa) - 30.03 (inHg)
Visibilité 6 (mile) - 9.7 (km)
Aéroport
Code de l'aéroport YMML

Emplacement: Melbourne International Airport
Distance: 18 (mi)

Metar:
YMML 012100Z 23007KT 9999 FEW025 SCT300 15/12 Q1017 RF00.0/000.0

Temps: 02-03-2024 08:00 AEDT